sensor_id;sensor_type;location;lat;lon;timestamp;P1;durP1;ratioP1;P2;durP2;ratioP2
67340;SDS011;54227;45.198;5.732;2022-08-19T00:01:34;0.47;;;0.40;;
67340;SDS011;54227;45.198;5.732;2022-08-19T00:04:03;1.10;;;0.60;;
67340;SDS011;54227;45.198;5.732;2022-08-19T00:06:30;1.02;;;0.50;;
67340;SDS011;54227;45.198;5.732;2022-08-19T00:08:57;1.15;;;0.60;;
67340;SDS011;54227;45.198;5.732;2022-08-19T00:11:25;1.17;;;0.60;;
67340;SDS011;54227;45.198;5.732;2022-08-19T00:13:52;0.73;;;0.47;;
67340;SDS011;54227;45.198;5.732;2022-08-19T00:16:21;0.70;;;0.50;;
67340;SDS011;54227;45.198;5.732;2022-08-19T00:18:48;2.67;;;0.55;;
67340;SDS011;54227;45.198;5.732;2022-08-19T00:21:14;0.98;;;0.63;;
67340;SDS011;54227;45.198;5.732;2022-08-19T00:23:40;0.50;;;0.50;;
67340;SDS011;54227;45.198;5.732;2022-08-19T00:26:08;0.73;;;0.50;;
67340;SDS011;54227;45.198;5.732;2022-08-19T00:28:35;0.95;;;0.60;;
67340;SDS011;54227;45.198;5.732;2022-08-19T00:31:01;0.75;;;0.60;;
67340;SDS011;54227;45.198;5.732;2022-08-19T00:33:29;0.93;;;0.60;;
67340;SDS011;54227;45.198;5.732;2022-08-19T00:36:00;0.80;;;0.60;;
67340;SDS011;54227;45.198;5.732;2022-08-19T00:38:29;0.55;;;0.50;;
67340;SDS011;54227;45.198;5.732;2022-08-19T00:40:54;1.60;;;0.60;;
67340;SDS011;54227;45.198;5.732;2022-08-19T00:43:21;0.82;;;0.40;;
67340;SDS011;54227;45.198;5.732;2022-08-19T00:45:48;1.02;;;0.60;;
67340;SDS011;54227;45.198;5.732;2022-08-19T00:48:15;0.98;;;0.40;;
67340;SDS011;54227;45.198;5.732;2022-08-19T00:50:41;1.10;;;0.60;;
67340;SDS011;54227;45.198;5.732;2022-08-19T00:53:12;0.82;;;0.57;;
67340;SDS011;54227;45.198;5.732;2022-08-19T00:55:42;0.47;;;0.40;;
67340;SDS011;54227;45.198;5.732;2022-08-19T00:58:12;0.60;;;0.50;;
67340;SDS011;54227;45.198;5.732;2022-08-19T01:00:40;0.93;;;0.63;;
67340;SDS011;54227;45.198;5.732;2022-08-19T01:03:07;0.68;;;0.50;;
67340;SDS011;54227;45.198;5.732;2022-08-19T01:05:35;0.60;;;0.45;;
67340;SDS011;54227;45.198;5.732;2022-08-19T01:08:02;0.60;;;0.40;;
67340;SDS011;54227;45.198;5.732;2022-08-19T01:10:30;0.70;;;0.50;;
67340;SDS011;54227;45.198;5.732;2022-08-19T01:13:00;0.52;;;0.40;;
67340;SDS011;54227;45.198;5.732;2022-08-19T01:15:32;0.70;;;0.60;;
67340;SDS011;54227;45.198;5.732;2022-08-19T01:18:01;0.82;;;0.60;;
67340;SDS011;54227;45.198;5.732;2022-08-19T01:20:30;0.90;;;0.52;;
67340;SDS011;54227;45.198;5.732;2022-08-19T01:22:57;0.70;;;0.52;;
67340;SDS011;54227;45.198;5.732;2022-08-19T01:25:28;0.93;;;0.68;;
67340;SDS011;54227;45.198;5.732;2022-08-19T01:27:57;0.75;;;0.50;;
67340;SDS011;54227;45.198;5.732;2022-08-19T01:30:27;0.68;;;0.52;;
67340;SDS011;54227;45.198;5.732;2022-08-19T01:32:57;1.42;;;0.60;;
67340;SDS011;54227;45.198;5.732;2022-08-19T01:35:26;0.50;;;0.50;;
67340;SDS011;54227;45.198;5.732;2022-08-19T01:40:25;0.88;;;0.60;;
67340;SDS011;54227;45.198;5.732;2022-08-19T01:42:54;0.63;;;0.50;;
67340;SDS011;54227;45.198;5.732;2022-08-19T01:45:20;0.90;;;0.60;;
67340;SDS011;54227;45.198;5.732;2022-08-19T01:47:47;0.98;;;0.60;;
67340;SDS011;54227;45.198;5.732;2022-08-19T01:50:13;1.08;;;0.57;;
67340;SDS011;54227;45.198;5.732;2022-08-19T01:52:39;0.45;;;0.45;;
67340;SDS011;54227;45.198;5.732;2022-08-19T01:55:07;0.55;;;0.45;;
67340;SDS011;54227;45.198;5.732;2022-08-19T01:57:34;0.95;;;0.60;;
67340;SDS011;54227;45.198;5.732;2022-08-19T02:00:00;1.33;;;0.60;;
67340;SDS011;54227;45.198;5.732;2022-08-19T02:02:29;0.90;;;0.55;;
67340;SDS011;54227;45.198;5.732;2022-08-19T02:04:55;0.50;;;0.50;;
67340;SDS011;54227;45.198;5.732;2022-08-19T02:07:20;1.15;;;0.70;;
67340;SDS011;54227;45.198;5.732;2022-08-19T02:09:46;0.85;;;0.50;;
67340;SDS011;54227;45.198;5.732;2022-08-19T02:12:13;0.70;;;0.50;;
67340;SDS011;54227;45.198;5.732;2022-08-19T02:14:39;0.88;;;0.50;;
67340;SDS011;54227;45.198;5.732;2022-08-19T02:17:05;0.43;;;0.40;;
67340;SDS011;54227;45.198;5.732;2022-08-19T02:19:31;0.82;;;0.52;;
67340;SDS011;54227;45.198;5.732;2022-08-19T02:21:57;0.60;;;0.40;;
67340;SDS011;54227;45.198;5.732;2022-08-19T02:24:23;0.98;;;0.55;;
67340;SDS011;54227;45.198;5.732;2022-08-19T02:26:49;0.75;;;0.45;;
67340;SDS011;54227;45.198;5.732;2022-08-19T02:29:14;0.98;;;0.63;;
67340;SDS011;54227;45.198;5.732;2022-08-19T02:31:40;1.35;;;0.60;;
67340;SDS011;54227;45.198;5.732;2022-08-19T02:34:05;0.43;;;0.43;;
67340;SDS011;54227;45.198;5.732;2022-08-19T02:36:31;0.82;;;0.50;;
67340;SDS011;54227;45.198;5.732;2022-08-19T02:38:56;0.77;;;0.60;;
67340;SDS011;54227;45.198;5.732;2022-08-19T02:41:29;0.70;;;0.60;;
67340;SDS011;54227;45.198;5.732;2022-08-19T02:43:56;0.93;;;0.43;;
67340;SDS011;54227;45.198;5.732;2022-08-19T02:46:25;0.82;;;0.60;;
67340;SDS011;54227;45.198;5.732;2022-08-19T02:48:54;0.40;;;0.40;;
67340;SDS011;54227;45.198;5.732;2022-08-19T02:51:23;0.98;;;0.60;;
67340;SDS011;54227;45.198;5.732;2022-08-19T02:53:51;0.70;;;0.50;;
67340;SDS011;54227;45.198;5.732;2022-08-19T02:56:16;0.63;;;0.50;;
67340;SDS011;54227;45.198;5.732;2022-08-19T02:58:42;0.70;;;0.50;;
67340;SDS011;54227;45.198;5.732;2022-08-19T03:01:08;0.57;;;0.50;;
67340;SDS011;54227;45.198;5.732;2022-08-19T03:03:35;0.40;;;0.40;;
67340;SDS011;54227;45.198;5.732;2022-08-19T03:06:05;0.95;;;0.50;;
67340;SDS011;54227;45.198;5.732;2022-08-19T03:08:33;0.63;;;0.40;;
67340;SDS011;54227;45.198;5.732;2022-08-19T03:10:58;0.50;;;0.40;;
67340;SDS011;54227;45.198;5.732;2022-08-19T03:13:24;1.10;;;0.70;;
67340;SDS011;54227;45.198;5.732;2022-08-19T03:15:49;0.47;;;0.47;;
67340;SDS011;54227;45.198;5.732;2022-08-19T03:18:15;1.05;;;0.65;;
67340;SDS011;54227;45.198;5.732;2022-08-19T03:20:45;0.93;;;0.52;;
67340;SDS011;54227;45.198;5.732;2022-08-19T03:23:13;0.67;;;0.60;;
67340;SDS011;54227;45.198;5.732;2022-08-19T03:25:40;0.55;;;0.40;;
67340;SDS011;54227;45.198;5.732;2022-08-19T03:28:08;0.40;;;0.40;;
67340;SDS011;54227;45.198;5.732;2022-08-19T03:30:35;0.80;;;0.50;;
67340;SDS011;54227;45.198;5.732;2022-08-19T03:33:00;0.75;;;0.60;;
67340;SDS011;54227;45.198;5.732;2022-08-19T03:35:27;0.52;;;0.40;;
67340;SDS011;54227;45.198;5.732;2022-08-19T03:37:52;0.85;;;0.50;;
67340;SDS011;54227;45.198;5.732;2022-08-19T03:40:18;0.70;;;0.50;;
67340;SDS011;54227;45.198;5.732;2022-08-19T03:42:44;0.80;;;0.50;;
67340;SDS011;54227;45.198;5.732;2022-08-19T03:45:11;0.70;;;0.50;;
67340;SDS011;54227;45.198;5.732;2022-08-19T03:47:36;1.02;;;0.70;;
67340;SDS011;54227;45.198;5.732;2022-08-19T03:50:02;0.45;;;0.40;;
67340;SDS011;54227;45.198;5.732;2022-08-19T03:52:29;0.60;;;0.50;;
67340;SDS011;54227;45.198;5.732;2022-08-19T03:54:55;0.77;;;0.60;;
67340;SDS011;54227;45.198;5.732;2022-08-19T03:57:20;0.47;;;0.40;;
67340;SDS011;54227;45.198;5.732;2022-08-19T03:59:46;0.80;;;0.60;;
67340;SDS011;54227;45.198;5.732;2022-08-19T04:02:11;0.80;;;0.50;;
67340;SDS011;54227;45.198;5.732;2022-08-19T04:04:41;1.02;;;0.60;;
67340;SDS011;54227;45.198;5.732;2022-08-19T04:07:08;0.88;;;0.50;;
67340;SDS011;54227;45.198;5.732;2022-08-19T04:09:36;0.50;;;0.45;;
67340;SDS011;54227;45.198;5.732;2022-08-19T04:12:02;0.55;;;0.40;;
67340;SDS011;54227;45.198;5.732;2022-08-19T04:14:31;0.65;;;0.50;;
67340;SDS011;54227;45.198;5.732;2022-08-19T04:16:57;0.93;;;0.60;;
67340;SDS011;54227;45.198;5.732;2022-08-19T04:19:24;0.75;;;0.50;;
67340;SDS011;54227;45.198;5.732;2022-08-19T04:21:51;0.50;;;0.50;;
67340;SDS011;54227;45.198;5.732;2022-08-19T04:24:19;1.02;;;0.60;;
67340;SDS011;54227;45.198;5.732;2022-08-19T04:26:46;0.75;;;0.47;;
67340;SDS011;54227;45.198;5.732;2022-08-19T04:29:15;0.70;;;0.40;;
67340;SDS011;54227;45.198;5.732;2022-08-19T04:31:43;0.73;;;0.38;;
67340;SDS011;54227;45.198;5.732;2022-08-19T04:34:10;0.55;;;0.40;;
67340;SDS011;54227;45.198;5.732;2022-08-19T04:36:39;0.43;;;0.40;;
67340;SDS011;54227;45.198;5.732;2022-08-19T04:39:10;0.70;;;0.50;;
67340;SDS011;54227;45.198;5.732;2022-08-19T04:41:38;0.82;;;0.55;;
67340;SDS011;54227;45.198;5.732;2022-08-19T04:44:22;0.95;;;0.60;;
67340;SDS011;54227;45.198;5.732;2022-08-19T04:46:48;0.63;;;0.45;;
67340;SDS011;54227;45.198;5.732;2022-08-19T04:49:15;0.50;;;0.50;;
67340;SDS011;54227;45.198;5.732;2022-08-19T04:51:43;0.65;;;0.50;;
67340;SDS011;54227;45.198;5.732;2022-08-19T04:54:09;0.73;;;0.50;;
67340;SDS011;54227;45.198;5.732;2022-08-19T04:56:34;0.70;;;0.50;;
67340;SDS011;54227;45.198;5.732;2022-08-19T04:59:00;1.02;;;0.60;;
67340;SDS011;54227;45.198;5.732;2022-08-19T05:01:29;0.47;;;0.40;;
67340;SDS011;54227;45.198;5.732;2022-08-19T05:03:58;0.88;;;0.55;;
67340;SDS011;54227;45.198;5.732;2022-08-19T05:06:25;3.30;;;0.50;;
67340;SDS011;54227;45.198;5.732;2022-08-19T05:08:52;11.05;;;1.38;;
67340;SDS011;54227;45.198;5.732;2022-08-19T05:11:22;10.98;;;1.33;;
67340;SDS011;54227;45.198;5.732;2022-08-19T05:13:53;26.17;;;2.20;;
67340;SDS011;54227;45.198;5.732;2022-08-19T05:16:20;15.32;;;1.30;;
67340;SDS011;54227;45.198;5.732;2022-08-19T05:18:47;17.58;;;1.85;;
67340;SDS011;54227;45.198;5.732;2022-08-19T05:21:32;12.63;;;1.50;;
67340;SDS011;54227;45.198;5.732;2022-08-19T05:24:17;10.60;;;1.20;;
67340;SDS011;54227;45.198;5.732;2022-08-19T05:26:46;15.25;;;1.20;;
67340;SDS011;54227;45.198;5.732;2022-08-19T05:29:14;15.32;;;1.33;;
67340;SDS011;54227;45.198;5.732;2022-08-19T05:31:41;13.82;;;1.30;;
67340;SDS011;54227;45.198;5.732;2022-08-19T05:34:08;13.18;;;1.40;;
67340;SDS011;54227;45.198;5.732;2022-08-19T05:36:38;15.60;;;1.30;;
67340;SDS011;54227;45.198;5.732;2022-08-19T05:39:06;11.40;;;1.13;;
67340;SDS011;54227;45.198;5.732;2022-08-19T05:41:33;5.72;;;1.25;;
67340;SDS011;54227;45.198;5.732;2022-08-19T05:44:01;8.00;;;1.20;;
67340;SDS011;54227;45.198;5.732;2022-08-19T05:46:31;11.82;;;1.52;;
67340;SDS011;54227;45.198;5.732;2022-08-19T05:48:57;14.90;;;1.27;;
67340;SDS011;54227;45.198;5.732;2022-08-19T05:51:23;12.57;;;1.25;;
67340;SDS011;54227;45.198;5.732;2022-08-19T05:53:50;4.80;;;1.15;;
67340;SDS011;54227;45.198;5.732;2022-08-19T05:56:16;9.07;;;1.20;;
67340;SDS011;54227;45.198;5.732;2022-08-19T05:58:43;10.70;;;1.13;;
67340;SDS011;54227;45.198;5.732;2022-08-19T06:01:11;9.07;;;1.10;;
67340;SDS011;54227;45.198;5.732;2022-08-19T06:03:39;5.55;;;1.08;;
67340;SDS011;54227;45.198;5.732;2022-08-19T06:06:05;8.07;;;1.10;;
67340;SDS011;54227;45.198;5.732;2022-08-19T06:08:32;7.05;;;1.50;;
67340;SDS011;54227;45.198;5.732;2022-08-19T06:11:11;11.65;;;1.00;;
67340;SDS011;54227;45.198;5.732;2022-08-19T06:13:38;7.88;;;0.90;;
67340;SDS011;54227;45.198;5.732;2022-08-19T06:16:03;4.57;;;1.13;;
67340;SDS011;54227;45.198;5.732;2022-08-19T06:18:29;7.07;;;0.93;;
67340;SDS011;54227;45.198;5.732;2022-08-19T06:20:55;7.05;;;0.93;;
67340;SDS011;54227;45.198;5.732;2022-08-19T06:23:20;4.55;;;1.00;;
67340;SDS011;54227;45.198;5.732;2022-08-19T06:25:46;6.43;;;0.88;;
67340;SDS011;54227;45.198;5.732;2022-08-19T06:28:12;3.60;;;1.08;;
67340;SDS011;54227;45.198;5.732;2022-08-19T06:30:37;7.22;;;1.00;;
67340;SDS011;54227;45.198;5.732;2022-08-19T06:33:03;5.72;;;1.13;;
67340;SDS011;54227;45.198;5.732;2022-08-19T06:35:28;3.35;;;0.80;;
67340;SDS011;54227;45.198;5.732;2022-08-19T06:37:54;4.03;;;0.93;;
67340;SDS011;54227;45.198;5.732;2022-08-19T06:40:20;9.35;;;1.40;;
67340;SDS011;54227;45.198;5.732;2022-08-19T06:42:45;3.78;;;1.00;;
67340;SDS011;54227;45.198;5.732;2022-08-19T06:45:11;6.65;;;1.20;;
67340;SDS011;54227;45.198;5.732;2022-08-19T06:47:36;4.68;;;1.25;;
67340;SDS011;54227;45.198;5.732;2022-08-19T06:50:02;2.83;;;0.75;;
67340;SDS011;54227;45.198;5.732;2022-08-19T06:52:29;2.47;;;0.85;;
67340;SDS011;54227;45.198;5.732;2022-08-19T06:54:55;4.20;;;0.73;;
67340;SDS011;54227;45.198;5.732;2022-08-19T06:57:22;1.55;;;0.60;;
67340;SDS011;54227;45.198;5.732;2022-08-19T06:59:49;2.55;;;0.73;;
67340;SDS011;54227;45.198;5.732;2022-08-19T07:02:15;5.25;;;0.80;;
67340;SDS011;54227;45.198;5.732;2022-08-19T07:04:41;1.95;;;1.02;;
67340;SDS011;54227;45.198;5.732;2022-08-19T07:07:08;4.00;;;0.70;;
67340;SDS011;54227;45.198;5.732;2022-08-19T07:09:37;3.65;;;0.77;;
67340;SDS011;54227;45.198;5.732;2022-08-19T07:12:10;6.38;;;1.35;;
67340;SDS011;54227;45.198;5.732;2022-08-19T07:14:38;1.73;;;0.80;;
67340;SDS011;54227;45.198;5.732;2022-08-19T07:17:06;1.90;;;0.80;;
67340;SDS011;54227;45.198;5.732;2022-08-19T07:19:34;3.03;;;1.00;;
67340;SDS011;54227;45.198;5.732;2022-08-19T07:22:02;2.95;;;0.90;;
67340;SDS011;54227;45.198;5.732;2022-08-19T07:24:29;3.05;;;1.17;;
67340;SDS011;54227;45.198;5.732;2022-08-19T07:26:56;3.95;;;1.40;;
67340;SDS011;54227;45.198;5.732;2022-08-19T07:29:25;3.47;;;1.13;;
67340;SDS011;54227;45.198;5.732;2022-08-19T07:31:52;2.17;;;1.00;;
67340;SDS011;54227;45.198;5.732;2022-08-19T07:34:20;5.38;;;1.30;;
67340;SDS011;54227;45.198;5.732;2022-08-19T07:36:46;4.10;;;1.38;;
67340;SDS011;54227;45.198;5.732;2022-08-19T07:39:16;1.65;;;0.90;;
67340;SDS011;54227;45.198;5.732;2022-08-19T07:41:44;2.37;;;1.00;;
67340;SDS011;54227;45.198;5.732;2022-08-19T07:44:10;3.03;;;1.10;;
67340;SDS011;54227;45.198;5.732;2022-08-19T07:46:39;2.75;;;0.85;;
67340;SDS011;54227;45.198;5.732;2022-08-19T07:49:07;2.08;;;0.80;;
67340;SDS011;54227;45.198;5.732;2022-08-19T07:51:33;3.13;;;0.70;;
67340;SDS011;54227;45.198;5.732;2022-08-19T07:53:59;4.13;;;0.95;;
67340;SDS011;54227;45.198;5.732;2022-08-19T07:56:25;2.05;;;0.70;;
67340;SDS011;54227;45.198;5.732;2022-08-19T07:58:51;1.48;;;0.75;;
67340;SDS011;54227;45.198;5.732;2022-08-19T08:01:21;1.60;;;0.63;;
67340;SDS011;54227;45.198;5.732;2022-08-19T08:03:49;1.33;;;0.70;;
67340;SDS011;54227;45.198;5.732;2022-08-19T08:06:34;3.13;;;0.93;;
67340;SDS011;54227;45.198;5.732;2022-08-19T08:09:23;1.52;;;0.60;;
67340;SDS011;54227;45.198;5.732;2022-08-19T08:11:56;1.15;;;0.60;;
67340;SDS011;54227;45.198;5.732;2022-08-19T08:14:25;1.35;;;0.55;;
67340;SDS011;54227;45.198;5.732;2022-08-19T08:16:54;2.55;;;0.85;;
67340;SDS011;54227;45.198;5.732;2022-08-19T08:19:22;1.10;;;0.40;;
67340;SDS011;54227;45.198;5.732;2022-08-19T08:21:49;1.23;;;0.65;;
67340;SDS011;54227;45.198;5.732;2022-08-19T08:24:17;1.00;;;0.60;;
67340;SDS011;54227;45.198;5.732;2022-08-19T08:26:42;1.70;;;0.80;;
67340;SDS011;54227;45.198;5.732;2022-08-19T08:29:09;1.13;;;0.50;;
67340;SDS011;54227;45.198;5.732;2022-08-19T08:31:39;2.28;;;0.55;;
67340;SDS011;54227;45.198;5.732;2022-08-19T08:34:05;0.75;;;0.60;;
67340;SDS011;54227;45.198;5.732;2022-08-19T08:36:31;2.30;;;0.50;;
67340;SDS011;54227;45.198;5.732;2022-08-19T08:38:59;1.00;;;0.60;;
67340;SDS011;54227;45.198;5.732;2022-08-19T08:41:34;0.70;;;0.40;;
67340;SDS011;54227;45.198;5.732;2022-08-19T08:44:20;0.65;;;0.50;;
67340;SDS011;54227;45.198;5.732;2022-08-19T08:46:57;0.88;;;0.40;;
67340;SDS011;54227;45.198;5.732;2022-08-19T08:52:26;0.57;;;0.40;;
67340;SDS011;54227;45.198;5.732;2022-08-19T08:54:54;2.03;;;0.47;;
67340;SDS011;54227;45.198;5.732;2022-08-19T08:57:33;1.08;;;0.50;;
67340;SDS011;54227;45.198;5.732;2022-08-19T09:00:05;1.20;;;0.40;;
67340;SDS011;54227;45.198;5.732;2022-08-19T09:02:35;1.52;;;0.50;;
67340;SDS011;54227;45.198;5.732;2022-08-19T09:05:01;1.67;;;0.50;;
67340;SDS011;54227;45.198;5.732;2022-08-19T09:07:42;0.88;;;0.40;;
67340;SDS011;54227;45.198;5.732;2022-08-19T09:10:21;0.77;;;0.40;;
67340;SDS011;54227;45.198;5.732;2022-08-19T09:15:34;1.20;;;0.50;;
67340;SDS011;54227;45.198;5.732;2022-08-19T09:18:03;1.27;;;0.47;;
67340;SDS011;54227;45.198;5.732;2022-08-19T09:20:30;0.95;;;0.50;;
67340;SDS011;54227;45.198;5.732;2022-08-19T09:22:56;1.45;;;0.63;;
67340;SDS011;54227;45.198;5.732;2022-08-19T09:25:23;1.67;;;0.70;;
67340;SDS011;54227;45.198;5.732;2022-08-19T09:27:50;0.82;;;0.50;;
67340;SDS011;54227;45.198;5.732;2022-08-19T09:30:22;2.70;;;0.80;;
67340;SDS011;54227;45.198;5.732;2022-08-19T09:32:50;1.05;;;0.40;;
67340;SDS011;54227;45.198;5.732;2022-08-19T09:35:20;1.52;;;0.73;;
67340;SDS011;54227;45.198;5.732;2022-08-19T09:37:47;1.70;;;0.60;;
67340;SDS011;54227;45.198;5.732;2022-08-19T09:40:14;2.38;;;0.50;;
67340;SDS011;54227;45.198;5.732;2022-08-19T09:42:40;0.88;;;0.32;;
67340;SDS011;54227;45.198;5.732;2022-08-19T09:45:08;1.13;;;0.50;;
67340;SDS011;54227;45.198;5.732;2022-08-19T09:47:35;0.40;;;0.40;;
67340;SDS011;54227;45.198;5.732;2022-08-19T09:50:03;0.90;;;0.50;;
67340;SDS011;54227;45.198;5.732;2022-08-19T09:52:30;0.65;;;0.43;;
67340;SDS011;54227;45.198;5.732;2022-08-19T09:54:56;1.30;;;0.50;;
67340;SDS011;54227;45.198;5.732;2022-08-19T09:57:21;1.52;;;0.60;;
67340;SDS011;54227;45.198;5.732;2022-08-19T09:59:46;1.50;;;0.40;;
67340;SDS011;54227;45.198;5.732;2022-08-19T10:02:13;0.82;;;0.47;;
67340;SDS011;54227;45.198;5.732;2022-08-19T10:04:38;2.15;;;0.47;;
67340;SDS011;54227;45.198;5.732;2022-08-19T10:07:22;0.43;;;0.30;;
67340;SDS011;54227;45.198;5.732;2022-08-19T10:09:48;2.75;;;0.52;;
67340;SDS011;54227;45.198;5.732;2022-08-19T10:12:13;1.35;;;0.50;;
67340;SDS011;54227;45.198;5.732;2022-08-19T10:14:40;0.75;;;0.43;;
67340;SDS011;54227;45.198;5.732;2022-08-19T10:17:06;3.03;;;0.40;;
67340;SDS011;54227;45.198;5.732;2022-08-19T10:19:31;1.00;;;0.52;;
67340;SDS011;54227;45.198;5.732;2022-08-19T10:22:02;0.63;;;0.30;;
67340;SDS011;54227;45.198;5.732;2022-08-19T10:24:30;0.57;;;0.40;;
67340;SDS011;54227;45.198;5.732;2022-08-19T10:26:55;2.70;;;0.60;;
67340;SDS011;54227;45.198;5.732;2022-08-19T10:29:21;0.57;;;0.40;;
67340;SDS011;54227;45.198;5.732;2022-08-19T10:31:46;0.50;;;0.30;;
67340;SDS011;54227;45.198;5.732;2022-08-19T10:34:12;1.73;;;0.50;;
67340;SDS011;54227;45.198;5.732;2022-08-19T10:36:38;1.60;;;0.40;;
67340;SDS011;54227;45.198;5.732;2022-08-19T10:39:05;0.68;;;0.52;;
67340;SDS011;54227;45.198;5.732;2022-08-19T10:41:34;0.80;;;0.40;;
67340;SDS011;54227;45.198;5.732;2022-08-19T10:44:08;0.93;;;0.50;;
67340;SDS011;54227;45.198;5.732;2022-08-19T10:46:36;0.60;;;0.40;;
67340;SDS011;54227;45.198;5.732;2022-08-19T10:49:05;0.98;;;0.47;;
67340;SDS011;54227;45.198;5.732;2022-08-19T10:51:31;1.35;;;0.50;;
67340;SDS011;54227;45.198;5.732;2022-08-19T10:54:16;0.57;;;0.40;;
67340;SDS011;54227;45.198;5.732;2022-08-19T10:56:42;0.85;;;0.40;;
67340;SDS011;54227;45.198;5.732;2022-08-19T10:59:18;1.33;;;0.45;;
67340;SDS011;54227;45.198;5.732;2022-08-19T11:01:52;1.17;;;0.40;;
67340;SDS011;54227;45.198;5.732;2022-08-19T11:04:19;0.80;;;0.52;;
67340;SDS011;54227;45.198;5.732;2022-08-19T11:06:46;1.90;;;0.50;;
67340;SDS011;54227;45.198;5.732;2022-08-19T11:09:14;0.70;;;0.40;;
67340;SDS011;54227;45.198;5.732;2022-08-19T11:11:41;0.50;;;0.35;;
67340;SDS011;54227;45.198;5.732;2022-08-19T11:14:08;0.38;;;0.38;;
67340;SDS011;54227;45.198;5.732;2022-08-19T11:16:38;0.40;;;0.40;;
67340;SDS011;54227;45.198;5.732;2022-08-19T11:19:05;0.82;;;0.40;;
67340;SDS011;54227;45.198;5.732;2022-08-19T11:21:34;0.88;;;0.30;;
67340;SDS011;54227;45.198;5.732;2022-08-19T11:24:03;1.92;;;0.50;;
67340;SDS011;54227;45.198;5.732;2022-08-19T11:26:32;1.05;;;0.30;;
67340;SDS011;54227;45.198;5.732;2022-08-19T11:28:59;0.80;;;0.50;;
67340;SDS011;54227;45.198;5.732;2022-08-19T11:31:28;1.05;;;0.50;;
67340;SDS011;54227;45.198;5.732;2022-08-19T11:33:59;0.47;;;0.30;;
67340;SDS011;54227;45.198;5.732;2022-08-19T11:36:26;0.50;;;0.30;;
67340;SDS011;54227;45.198;5.732;2022-08-19T11:38:52;1.08;;;0.50;;
67340;SDS011;54227;45.198;5.732;2022-08-19T11:41:19;0.82;;;0.60;;
67340;SDS011;54227;45.198;5.732;2022-08-19T11:43:47;0.82;;;0.50;;
67340;SDS011;54227;45.198;5.732;2022-08-19T11:46:14;0.70;;;0.43;;
67340;SDS011;54227;45.198;5.732;2022-08-19T11:48:41;0.40;;;0.40;;
67340;SDS011;54227;45.198;5.732;2022-08-19T11:51:09;0.50;;;0.40;;
67340;SDS011;54227;45.198;5.732;2022-08-19T11:53:37;0.50;;;0.40;;
67340;SDS011;54227;45.198;5.732;2022-08-19T11:56:04;0.40;;;0.40;;
67340;SDS011;54227;45.198;5.732;2022-08-19T11:58:30;1.25;;;0.50;;
67340;SDS011;54227;45.198;5.732;2022-08-19T12:00:56;1.05;;;0.50;;
67340;SDS011;54227;45.198;5.732;2022-08-19T12:03:22;0.75;;;0.50;;
67340;SDS011;54227;45.198;5.732;2022-08-19T12:05:48;0.63;;;0.30;;
67340;SDS011;54227;45.198;5.732;2022-08-19T12:08:14;0.47;;;0.30;;
67340;SDS011;54227;45.198;5.732;2022-08-19T12:10:41;0.65;;;0.40;;
67340;SDS011;54227;45.198;5.732;2022-08-19T12:13:08;0.57;;;0.40;;
67340;SDS011;54227;45.198;5.732;2022-08-19T12:15:35;0.52;;;0.40;;
67340;SDS011;54227;45.198;5.732;2022-08-19T12:18:03;0.73;;;0.40;;
67340;SDS011;54227;45.198;5.732;2022-08-19T12:20:29;0.70;;;0.43;;
67340;SDS011;54227;45.198;5.732;2022-08-19T12:22:55;1.42;;;0.43;;
67340;SDS011;54227;45.198;5.732;2022-08-19T12:25:21;0.50;;;0.40;;
67340;SDS011;54227;45.198;5.732;2022-08-19T12:27:47;0.60;;;0.40;;
67340;SDS011;54227;45.198;5.732;2022-08-19T12:30:13;1.15;;;0.50;;
67340;SDS011;54227;45.198;5.732;2022-08-19T12:32:39;0.68;;;0.50;;
67340;SDS011;54227;45.198;5.732;2022-08-19T12:35:05;1.85;;;0.50;;
67340;SDS011;54227;45.198;5.732;2022-08-19T12:37:33;0.50;;;0.40;;
67340;SDS011;54227;45.198;5.732;2022-08-19T12:39:59;0.57;;;0.35;;
67340;SDS011;54227;45.198;5.732;2022-08-19T12:42:24;0.40;;;0.38;;
67340;SDS011;54227;45.198;5.732;2022-08-19T12:44:50;0.50;;;0.50;;
67340;SDS011;54227;45.198;5.732;2022-08-19T12:47:17;0.43;;;0.40;;
67340;SDS011;54227;45.198;5.732;2022-08-19T12:49:42;0.38;;;0.30;;
67340;SDS011;54227;45.198;5.732;2022-08-19T12:52:09;0.63;;;0.40;;
67340;SDS011;54227;45.198;5.732;2022-08-19T12:54:36;0.75;;;0.50;;
67340;SDS011;54227;45.198;5.732;2022-08-19T12:57:06;0.82;;;0.52;;
67340;SDS011;54227;45.198;5.732;2022-08-19T12:59:33;0.52;;;0.40;;
67340;SDS011;54227;45.198;5.732;2022-08-19T13:02:01;2.17;;;0.47;;
67340;SDS011;54227;45.198;5.732;2022-08-19T13:04:26;0.50;;;0.43;;
67340;SDS011;54227;45.198;5.732;2022-08-19T13:06:52;0.60;;;0.50;;
67340;SDS011;54227;45.198;5.732;2022-08-19T13:09:17;0.70;;;0.50;;
67340;SDS011;54227;45.198;5.732;2022-08-19T13:11:43;0.43;;;0.40;;
67340;SDS011;54227;45.198;5.732;2022-08-19T13:14:09;0.63;;;0.40;;
67340;SDS011;54227;45.198;5.732;2022-08-19T13:16:36;0.82;;;0.40;;
67340;SDS011;54227;45.198;5.732;2022-08-19T13:19:02;0.63;;;0.50;;
67340;SDS011;54227;45.198;5.732;2022-08-19T13:21:30;0.95;;;0.55;;
67340;SDS011;54227;45.198;5.732;2022-08-19T13:23:56;0.73;;;0.50;;
67340;SDS011;54227;45.198;5.732;2022-08-19T13:26:23;0.80;;;0.47;;
67340;SDS011;54227;45.198;5.732;2022-08-19T13:28:48;0.63;;;0.50;;
67340;SDS011;54227;45.198;5.732;2022-08-19T13:31:33;0.43;;;0.40;;
67340;SDS011;54227;45.198;5.732;2022-08-19T13:34:19;0.57;;;0.50;;
67340;SDS011;54227;45.198;5.732;2022-08-19T13:36:54;1.33;;;0.60;;
67340;SDS011;54227;45.198;5.732;2022-08-19T13:39:20;1.42;;;0.60;;
67340;SDS011;54227;45.198;5.732;2022-08-19T13:41:48;0.60;;;0.50;;
67340;SDS011;54227;45.198;5.732;2022-08-19T13:44:17;0.65;;;0.50;;
67340;SDS011;54227;45.198;5.732;2022-08-19T13:46:44;0.82;;;0.60;;
67340;SDS011;54227;45.198;5.732;2022-08-19T13:49:10;0.80;;;0.55;;
67340;SDS011;54227;45.198;5.732;2022-08-19T13:51:40;1.08;;;0.65;;
67340;SDS011;54227;45.198;5.732;2022-08-19T13:54:07;0.98;;;0.70;;
67340;SDS011;54227;45.198;5.732;2022-08-19T13:56:34;0.50;;;0.40;;
67340;SDS011;54227;45.198;5.732;2022-08-19T13:59:04;0.57;;;0.50;;
67340;SDS011;54227;45.198;5.732;2022-08-19T14:01:29;2.88;;;0.60;;
67340;SDS011;54227;45.198;5.732;2022-08-19T14:03:55;0.75;;;0.50;;
67340;SDS011;54227;45.198;5.732;2022-08-19T14:06:20;0.90;;;0.60;;
67340;SDS011;54227;45.198;5.732;2022-08-19T14:08:47;0.73;;;0.60;;
67340;SDS011;54227;45.198;5.732;2022-08-19T14:11:13;1.50;;;0.60;;
67340;SDS011;54227;45.198;5.732;2022-08-19T14:13:39;0.90;;;0.50;;
67340;SDS011;54227;45.198;5.732;2022-08-19T14:16:08;0.90;;;0.60;;
67340;SDS011;54227;45.198;5.732;2022-08-19T14:18:39;0.93;;;0.60;;
67340;SDS011;54227;45.198;5.732;2022-08-19T14:21:06;1.00;;;0.60;;
67340;SDS011;54227;45.198;5.732;2022-08-19T14:23:32;0.90;;;0.68;;
67340;SDS011;54227;45.198;5.732;2022-08-19T14:26:06;1.10;;;0.60;;
67340;SDS011;54227;45.198;5.732;2022-08-19T14:28:38;0.90;;;0.55;;
67340;SDS011;54227;45.198;5.732;2022-08-19T14:31:06;0.88;;;0.60;;
67340;SDS011;54227;45.198;5.732;2022-08-19T14:33:33;1.25;;;0.68;;
67340;SDS011;54227;45.198;5.732;2022-08-19T14:35:58;0.82;;;0.60;;
67340;SDS011;54227;45.198;5.732;2022-08-19T14:38:25;1.83;;;0.75;;
67340;SDS011;54227;45.198;5.732;2022-08-19T14:40:51;1.17;;;0.77;;
67340;SDS011;54227;45.198;5.732;2022-08-19T14:43:17;1.15;;;0.70;;
67340;SDS011;54227;45.198;5.732;2022-08-19T14:45:42;0.98;;;0.60;;
67340;SDS011;54227;45.198;5.732;2022-08-19T14:48:08;0.77;;;0.60;;
67340;SDS011;54227;45.198;5.732;2022-08-19T14:50:34;1.08;;;0.80;;
67340;SDS011;54227;45.198;5.732;2022-08-19T14:53:04;1.00;;;0.70;;
67340;SDS011;54227;45.198;5.732;2022-08-19T14:55:31;1.20;;;0.80;;
67340;SDS011;54227;45.198;5.732;2022-08-19T14:57:57;0.95;;;0.70;;
67340;SDS011;54227;45.198;5.732;2022-08-19T15:00:23;1.33;;;0.80;;